createdAt,value
2022-11-24T00:00:21.848Z,992.39
2022-11-24T00:01:21.843Z,992.42
2022-11-24T00:02:21.838Z,992.39
2022-11-24T00:03:21.843Z,992.38
2022-11-24T00:04:21.844Z,992.38
2022-11-24T00:05:21.812Z,992.46
2022-11-24T00:06:21.797Z,992.51
2022-11-24T00:07:30.211Z,992.48
2022-11-24T00:08:21.894Z,992.54
2022-11-24T00:09:22.792Z,992.51
2022-11-24T00:10:21.754Z,992.46
2022-11-24T00:11:21.745Z,992.46
2022-11-24T00:12:21.746Z,992.43
2022-11-24T00:13:21.730Z,992.46
2022-11-24T00:14:21.705Z,992.47
2022-11-24T00:15:21.708Z,992.47
2022-11-24T00:16:21.699Z,992.5
2022-11-24T00:17:21.671Z,992.5
2022-11-24T00:18:21.685Z,992.43
2022-11-24T00:19:21.663Z,992.51
2022-11-24T00:20:21.640Z,992.48
2022-11-24T00:21:21.644Z,992.49
2022-11-24T00:22:21.619Z,992.54
2022-11-24T00:23:21.606Z,992.49
2022-11-24T00:24:21.597Z,992.51
2022-11-24T00:25:21.582Z,992.46
2022-11-24T00:26:21.570Z,992.52
2022-11-24T00:27:21.563Z,992.53
2022-11-24T00:28:21.605Z,992.57
2022-11-24T00:29:21.562Z,992.58
2022-11-24T00:30:21.534Z,992.56
2022-11-24T00:31:21.520Z,992.63
2022-11-24T00:32:21.516Z,992.6
2022-11-24T00:33:21.500Z,992.62
2022-11-24T00:34:21.487Z,992.61
2022-11-24T00:35:21.481Z,992.6
2022-11-24T00:36:21.468Z,992.64
2022-11-24T00:37:21.459Z,992.54
2022-11-24T00:38:21.445Z,992.59
2022-11-24T00:39:21.440Z,992.6
2022-11-24T00:40:21.429Z,992.64
2022-11-24T00:41:21.414Z,992.64
2022-11-24T00:42:21.404Z,992.61
2022-11-24T00:43:21.393Z,992.68
2022-11-24T00:44:21.389Z,992.67
2022-11-24T00:45:21.370Z,992.69
2022-11-24T00:46:21.360Z,992.64
2022-11-24T00:47:21.355Z,992.63
2022-11-24T00:48:21.342Z,992.67
2022-11-24T00:49:21.330Z,992.66
2022-11-24T00:50:21.319Z,992.74
2022-11-24T00:51:21.306Z,992.73
2022-11-24T00:52:21.296Z,992.72
2022-11-24T00:53:21.285Z,992.69
2022-11-24T00:54:21.280Z,992.68
2022-11-24T00:55:21.269Z,992.68
2022-11-24T00:56:21.252Z,992.7
2022-11-24T00:57:21.241Z,992.73
2022-11-24T00:58:21.233Z,992.74
2022-11-24T00:59:21.228Z,992.8
2022-11-24T01:00:21.216Z,992.78
2022-11-24T01:01:21.197Z,992.77
2022-11-24T01:02:21.189Z,992.74
2022-11-24T01:03:21.179Z,992.75
2022-11-24T01:04:21.168Z,992.79
2022-11-24T01:05:21.158Z,992.79
2022-11-24T01:06:21.146Z,992.82
2022-11-24T01:07:21.151Z,992.82
2022-11-24T01:08:21.123Z,992.85
2022-11-24T01:09:21.119Z,992.8
2022-11-24T01:10:21.107Z,992.83
2022-11-24T01:11:21.094Z,992.83
2022-11-24T01:12:21.084Z,992.86
2022-11-24T01:13:21.076Z,992.9
2022-11-24T01:14:21.059Z,992.83
2022-11-24T01:15:21.051Z,992.8
2022-11-24T01:16:21.038Z,992.82
2022-11-24T01:17:21.030Z,992.82
2022-11-24T01:18:21.026Z,992.83
2022-11-24T01:19:21.013Z,992.88
2022-11-24T01:20:20.994Z,992.86
2022-11-24T01:21:20.986Z,992.88
2022-11-24T01:22:20.975Z,992.89
2022-11-24T01:23:20.970Z,992.93
2022-11-24T01:24:20.956Z,992.89
2022-11-24T01:25:20.944Z,992.94
2022-11-24T01:26:20.932Z,992.92
2022-11-24T01:27:20.926Z,992.96
2022-11-24T01:28:20.914Z,992.92
2022-11-24T01:29:20.909Z,992.97
2022-11-24T01:30:20.898Z,992.99
2022-11-24T01:31:20.880Z,993.02
2022-11-24T01:32:20.873Z,992.95
2022-11-24T01:33:20.861Z,992.98
2022-11-24T01:34:20.854Z,992.95
2022-11-24T01:35:20.836Z,992.94
2022-11-24T01:36:20.834Z,992.94
2022-11-24T01:37:20.812Z,992.9
2022-11-24T01:38:20.802Z,992.92
2022-11-24T01:39:20.793Z,992.91
2022-11-24T01:40:20.783Z,992.91
2022-11-24T01:41:20.778Z,992.9
2022-11-24T01:42:20.764Z,992.94
2022-11-24T01:43:20.756Z,992.97
2022-11-24T01:44:20.737Z,992.99
2022-11-24T01:45:20.734Z,992.94
2022-11-24T01:46:20.720Z,992.91
2022-11-24T01:47:20.708Z,992.95
2022-11-24T01:48:20.697Z,992.91
2022-11-24T01:49:20.688Z,992.95
2022-11-24T01:50:20.679Z,992.93
2022-11-24T01:51:20.668Z,992.98
2022-11-24T01:52:20.658Z,993.02
2022-11-24T01:53:20.644Z,992.97
2022-11-24T01:54:20.630Z,992.97
2022-11-24T01:55:20.622Z,993.03
2022-11-24T01:56:20.611Z,993.03
2022-11-24T01:57:20.603Z,993.01
2022-11-24T01:58:20.598Z,993.04
2022-11-24T01:59:20.585Z,992.95
2022-11-24T02:00:20.571Z,993.05
2022-11-24T02:01:20.555Z,993.07
2022-11-24T02:02:20.547Z,993.02
2022-11-24T02:03:20.534Z,993.01
2022-11-24T02:04:20.540Z,993.09
2022-11-24T02:05:20.516Z,993.14
2022-11-24T02:06:20.504Z,993.11
2022-11-24T02:07:20.494Z,993.11
2022-11-24T02:08:20.479Z,993.13
2022-11-24T02:09:20.472Z,993.15
2022-11-24T02:10:20.466Z,993.15
2022-11-24T02:11:20.451Z,993.11
2022-11-24T02:12:20.440Z,993.16
2022-11-24T02:13:20.443Z,993.11
2022-11-24T02:14:20.419Z,993.14
2022-11-24T02:15:20.408Z,993.21
2022-11-24T02:16:20.406Z,993.13
2022-11-24T02:17:20.387Z,993.21
2022-11-24T02:18:20.373Z,993.21
2022-11-24T02:19:20.365Z,993.24
2022-11-24T02:20:20.357Z,993.2
2022-11-24T02:21:20.343Z,993.18
2022-11-24T02:22:20.331Z,993.2
2022-11-24T02:23:20.324Z,993.19
2022-11-24T02:24:20.310Z,993.2
2022-11-24T02:25:20.298Z,993.19
2022-11-24T02:26:20.292Z,993.23
2022-11-24T02:27:20.277Z,993.29
2022-11-24T02:28:20.267Z,993.27
2022-11-24T02:29:20.259Z,993.32
2022-11-24T02:30:20.256Z,993.31
2022-11-24T02:31:20.234Z,993.27
2022-11-24T02:32:20.225Z,993.38
2022-11-24T02:33:20.214Z,993.33
2022-11-24T02:34:20.205Z,993.41
2022-11-24T02:35:20.194Z,993.32
2022-11-24T02:36:20.181Z,993.35
2022-11-24T02:37:20.174Z,993.4
2022-11-24T02:38:20.166Z,993.36
2022-11-24T02:39:20.153Z,993.49
2022-11-24T02:40:20.140Z,993.46
2022-11-24T02:41:20.135Z,993.41
2022-11-24T02:42:20.114Z,993.4
2022-11-24T02:43:20.108Z,993.35
2022-11-24T02:44:20.096Z,993.34
2022-11-24T02:45:20.086Z,993.42
2022-11-24T02:46:20.075Z,993.3
2022-11-24T02:47:20.063Z,993.41
2022-11-24T02:48:20.056Z,993.42
2022-11-24T02:49:20.039Z,993.47
2022-11-24T02:50:20.053Z,993.36
2022-11-24T02:51:20.023Z,993.45
2022-11-24T02:52:20.010Z,993.42
2022-11-24T02:53:20.006Z,993.48
2022-11-24T02:54:19.987Z,993.45
2022-11-24T02:55:19.979Z,993.44
2022-11-24T02:56:19.970Z,993.48
2022-11-24T02:57:19.955Z,993.52
2022-11-24T02:58:19.946Z,993.51
2022-11-24T02:59:19.934Z,993.49
2022-11-24T03:00:19.929Z,993.51
2022-11-24T03:01:19.914Z,993.48
2022-11-24T03:02:19.900Z,993.52
2022-11-24T03:03:19.890Z,993.51
2022-11-24T03:04:19.877Z,993.54
2022-11-24T03:05:19.873Z,993.56
2022-11-24T03:06:19.869Z,993.58
2022-11-24T03:07:19.852Z,993.58
2022-11-24T03:08:19.834Z,993.51
2022-11-24T03:09:19.835Z,993.57
2022-11-24T03:10:19.818Z,993.5
2022-11-24T03:11:19.804Z,993.52
2022-11-24T03:12:19.795Z,993.59
2022-11-24T03:13:19.785Z,993.55
2022-11-24T03:14:19.774Z,993.47
2022-11-24T03:15:19.761Z,993.55
2022-11-24T03:16:19.754Z,993.56
2022-11-24T03:17:19.747Z,993.61
2022-11-24T03:18:19.733Z,993.57
2022-11-24T03:19:19.718Z,993.58
2022-11-24T03:20:19.713Z,993.63
2022-11-24T03:21:19.700Z,993.61
2022-11-24T03:22:19.690Z,993.66
2022-11-24T03:23:19.673Z,993.68
2022-11-24T03:24:19.672Z,993.65
2022-11-24T03:25:19.654Z,993.68
2022-11-24T03:26:19.647Z,993.69
2022-11-24T03:27:19.636Z,993.7
2022-11-24T03:28:19.623Z,993.76
2022-11-24T03:29:19.612Z,993.77
2022-11-24T03:30:19.612Z,993.83
2022-11-24T03:31:19.590Z,993.75
2022-11-24T03:32:19.579Z,993.81
2022-11-24T03:33:19.567Z,993.84
2022-11-24T03:34:19.560Z,993.81
2022-11-24T03:35:19.550Z,993.8
2022-11-24T03:36:19.546Z,993.82
2022-11-24T03:37:19.527Z,993.83
2022-11-24T03:38:19.512Z,993.79
2022-11-24T03:39:19.507Z,993.88
2022-11-24T03:40:19.495Z,993.87
2022-11-24T03:41:19.483Z,993.85
2022-11-24T03:42:19.484Z,993.85
2022-11-24T03:43:19.469Z,993.87
2022-11-24T03:44:19.450Z,993.85
2022-11-24T03:45:19.443Z,993.93
2022-11-24T03:46:19.433Z,993.9
2022-11-24T03:47:19.418Z,993.91
2022-11-24T03:48:19.410Z,993.84
2022-11-24T03:49:19.404Z,993.86
2022-11-24T03:50:19.384Z,993.89
2022-11-24T03:51:19.375Z,993.89
2022-11-24T03:52:19.367Z,993.89
2022-11-24T03:53:19.354Z,993.83
2022-11-24T03:54:19.347Z,993.93
2022-11-24T03:55:19.341Z,993.91
2022-11-24T03:56:19.322Z,993.97
2022-11-24T03:57:19.312Z,993.93
2022-11-24T03:58:19.303Z,993.93
2022-11-24T03:59:19.298Z,993.95
2022-11-24T04:00:19.280Z,993.93
2022-11-24T04:01:19.277Z,993.91
2022-11-24T04:02:19.266Z,993.96
2022-11-24T04:03:19.250Z,993.93
2022-11-24T04:04:19.240Z,994.03
2022-11-24T04:05:19.229Z,993.98
2022-11-24T04:06:19.220Z,993.96
2022-11-24T04:07:19.206Z,993.98
2022-11-24T04:08:19.206Z,993.99
2022-11-24T04:09:19.183Z,994.05
2022-11-24T04:10:19.174Z,994.09
2022-11-24T04:11:19.161Z,994.08
2022-11-24T04:12:19.154Z,994.06
2022-11-24T04:13:19.141Z,994.1
2022-11-24T04:14:19.131Z,994.1
2022-11-24T04:15:19.121Z,994.13
2022-11-24T04:16:19.110Z,994.16
2022-11-24T04:17:19.098Z,994.17
2022-11-24T04:18:19.086Z,994.13
2022-11-24T04:19:19.073Z,994.13
2022-11-24T04:20:19.069Z,994.14
2022-11-24T04:21:19.055Z,994.16
2022-11-24T04:22:19.042Z,994.12
2022-11-24T04:23:19.031Z,994.21
2022-11-24T04:24:19.022Z,994.21
2022-11-24T04:25:19.014Z,994.24
2022-11-24T04:26:18.999Z,994.2
2022-11-24T04:27:19.047Z,994.26
2022-11-24T04:28:18.984Z,994.24
2022-11-24T04:29:18.979Z,994.22
2022-11-24T04:30:18.961Z,994.21
2022-11-24T04:31:18.951Z,994.22
2022-11-24T04:32:18.931Z,994.21
2022-11-24T04:33:18.922Z,994.25
2022-11-24T04:34:18.915Z,994.2
2022-11-24T04:35:18.907Z,994.26
2022-11-24T04:36:18.891Z,994.29
2022-11-24T04:37:18.878Z,994.3
2022-11-24T04:38:18.880Z,994.32
2022-11-24T04:39:18.860Z,994.32
2022-11-24T04:40:18.847Z,994.33
2022-11-24T04:41:18.839Z,994.33
2022-11-24T04:42:18.826Z,994.32
2022-11-24T04:43:18.815Z,994.32
2022-11-24T04:44:18.806Z,994.32
2022-11-24T04:45:18.800Z,994.36
2022-11-24T04:46:18.782Z,994.35
2022-11-24T04:47:18.774Z,994.35
2022-11-24T04:48:18.766Z,994.38
2022-11-24T04:49:18.754Z,994.45
2022-11-24T04:50:18.756Z,994.41
2022-11-24T04:51:18.741Z,994.42
2022-11-24T04:52:18.722Z,994.44
2022-11-24T04:53:18.710Z,994.37
2022-11-24T04:54:18.698Z,994.47
2022-11-24T04:55:18.692Z,994.41
2022-11-24T04:56:18.681Z,994.44
2022-11-24T04:57:18.676Z,994.47
2022-11-24T04:58:18.662Z,994.44
2022-11-24T04:59:18.649Z,994.48
2022-11-24T05:00:18.636Z,994.52
2022-11-24T05:01:18.626Z,994.52
2022-11-24T05:02:18.617Z,994.53
2022-11-24T05:03:18.610Z,994.53
2022-11-24T05:04:18.594Z,994.61
2022-11-24T05:05:18.583Z,994.6
2022-11-24T05:06:18.573Z,994.62
2022-11-24T05:07:18.564Z,994.67
2022-11-24T05:08:18.556Z,994.63
2022-11-24T05:09:18.550Z,994.66
2022-11-24T05:10:18.536Z,994.64
2022-11-24T05:11:18.523Z,994.71
2022-11-24T05:12:18.514Z,994.68
2022-11-24T05:13:18.509Z,994.71
2022-11-24T05:14:18.494Z,994.71
2022-11-24T05:15:18.489Z,994.71
2022-11-24T05:16:18.476Z,994.72
2022-11-24T05:17:18.462Z,994.74
2022-11-24T05:18:18.450Z,994.75
2022-11-24T05:19:18.441Z,994.74
2022-11-24T05:20:18.431Z,994.73
2022-11-24T05:21:18.448Z,994.72
2022-11-24T05:22:18.408Z,994.71
2022-11-24T05:23:18.401Z,994.73
2022-11-24T05:24:18.387Z,994.75
2022-11-24T05:25:18.380Z,994.79
2022-11-24T05:26:18.366Z,994.8
2022-11-24T05:27:18.355Z,994.81
2022-11-24T05:28:18.346Z,994.78
2022-11-24T05:29:18.358Z,994.79
2022-11-24T05:30:18.328Z,994.7
2022-11-24T05:31:18.315Z,994.82
2022-11-24T05:32:18.304Z,994.79
2022-11-24T05:33:18.293Z,994.84
2022-11-24T05:34:18.291Z,994.78
2022-11-24T05:35:18.274Z,994.8
2022-11-24T05:36:18.261Z,994.82
2022-11-24T05:37:18.251Z,994.83
2022-11-24T05:38:18.244Z,994.88
2022-11-24T05:39:18.229Z,994.9
2022-11-24T05:40:18.228Z,994.89
2022-11-24T05:41:18.205Z,994.87
2022-11-24T05:42:18.198Z,994.91
2022-11-24T05:43:18.193Z,994.95
2022-11-24T05:44:18.174Z,994.96
2022-11-24T05:45:18.167Z,994.97
2022-11-24T05:46:18.174Z,995
2022-11-24T05:47:18.142Z,995
2022-11-24T05:48:18.138Z,995.03
2022-11-24T05:49:18.127Z,994.97
2022-11-24T05:50:18.106Z,995.01
2022-11-24T05:51:18.105Z,994.99
2022-11-24T05:52:18.089Z,995.05
2022-11-24T05:53:18.082Z,994.95
2022-11-24T05:54:18.071Z,995.02
2022-11-24T05:55:18.055Z,995
2022-11-24T05:56:18.051Z,995.05
2022-11-24T05:57:18.034Z,995.01
2022-11-24T05:58:18.022Z,995.06
2022-11-24T05:59:18.015Z,995.03
2022-11-24T06:00:18.007Z,995.11
2022-11-24T06:01:17.993Z,995.11
2022-11-24T06:02:17.979Z,995.08
2022-11-24T06:03:17.974Z,995.06
2022-11-24T06:04:17.961Z,995.11
2022-11-24T06:05:17.954Z,995.15
2022-11-24T06:06:17.950Z,995.15
2022-11-24T06:07:17.939Z,995.17
2022-11-24T06:08:17.920Z,995.13
2022-11-24T06:09:17.908Z,995.13
2022-11-24T06:10:17.895Z,995.13
2022-11-24T06:11:17.891Z,995.15
2022-11-24T06:12:17.880Z,995.15
2022-11-24T06:13:17.867Z,995.11
2022-11-24T06:14:17.859Z,995.2
2022-11-24T06:15:17.847Z,995.21
2022-11-24T06:16:17.835Z,995.21
2022-11-24T06:17:17.822Z,995.16
2022-11-24T06:18:17.814Z,995.22
2022-11-24T06:19:17.808Z,995.25
2022-11-24T06:20:17.793Z,995.25
2022-11-24T06:21:17.783Z,995.24
2022-11-24T06:22:17.769Z,995.27
2022-11-24T06:23:17.760Z,995.23
2022-11-24T06:24:17.748Z,995.25
2022-11-24T06:25:17.745Z,995.22
2022-11-24T06:26:17.728Z,995.25
2022-11-24T06:27:17.716Z,995.26
2022-11-24T06:28:17.709Z,995.27
2022-11-24T06:29:17.696Z,995.31
2022-11-24T06:30:17.686Z,995.28
2022-11-24T06:31:17.676Z,995.31
2022-11-24T06:32:17.664Z,995.28
2022-11-24T06:33:17.656Z,995.28
2022-11-24T06:34:17.656Z,995.28
2022-11-24T06:35:17.632Z,995.32
2022-11-24T06:36:17.620Z,995.36
2022-11-24T06:37:17.616Z,995.35
2022-11-24T06:38:17.604Z,995.36
2022-11-24T06:39:17.589Z,995.38
2022-11-24T06:40:17.585Z,995.38
2022-11-24T06:41:17.570Z,995.39
2022-11-24T06:42:17.557Z,995.46
2022-11-24T06:43:17.552Z,995.49
2022-11-24T06:44:17.540Z,995.49
2022-11-24T06:45:17.533Z,995.56
2022-11-24T06:46:17.522Z,995.51
2022-11-24T06:47:17.511Z,995.56
2022-11-24T06:48:17.494Z,995.5
2022-11-24T06:49:17.488Z,995.64
2022-11-24T06:50:17.487Z,995.63
2022-11-24T06:51:17.463Z,995.59
2022-11-24T06:52:17.456Z,995.66
2022-11-24T06:53:17.448Z,995.64
2022-11-24T06:54:17.436Z,995.68
2022-11-24T06:55:17.423Z,995.69
2022-11-24T06:56:17.426Z,995.66
2022-11-24T06:57:17.401Z,995.7
2022-11-24T06:58:17.389Z,995.78
2022-11-24T06:59:17.387Z,995.79
2022-11-24T07:00:17.366Z,995.73
2022-11-24T07:01:17.370Z,995.75
2022-11-24T07:02:17.355Z,995.82
2022-11-24T07:03:17.345Z,995.8
2022-11-24T07:04:17.328Z,995.83
2022-11-24T07:05:17.317Z,995.84
2022-11-24T07:06:17.323Z,995.9
2022-11-24T07:07:17.294Z,995.87
2022-11-24T07:08:17.285Z,995.92
2022-11-24T07:09:17.294Z,995.99
2022-11-24T07:10:17.270Z,996
2022-11-24T07:11:17.256Z,995.99
2022-11-24T07:12:17.242Z,996.02
2022-11-24T07:13:17.231Z,996.05
2022-11-24T07:14:17.247Z,996
2022-11-24T07:15:17.215Z,996.07
2022-11-24T07:16:17.199Z,996.07
2022-11-24T07:17:17.189Z,996.1
2022-11-24T07:18:17.182Z,996.08
2022-11-24T07:19:17.223Z,996.08
2022-11-24T07:20:17.158Z,996.1
2022-11-24T07:21:17.150Z,996.1
2022-11-24T07:22:17.135Z,996.17
2022-11-24T07:23:17.131Z,996.15
2022-11-24T07:24:17.119Z,996.19
2022-11-24T07:25:17.105Z,996.19
2022-11-24T07:26:17.107Z,996.21
2022-11-24T07:27:17.084Z,996.19
2022-11-24T07:28:17.078Z,996.18
2022-11-24T07:29:17.077Z,996.22
2022-11-24T07:30:17.054Z,996.24
2022-11-24T07:31:17.046Z,996.25
2022-11-24T07:32:17.031Z,996.24
2022-11-24T07:33:17.027Z,996.28
2022-11-24T07:34:17.015Z,996.26
2022-11-24T07:35:17.005Z,996.34
2022-11-24T07:36:16.989Z,996.31
2022-11-24T07:37:16.985Z,996.38
2022-11-24T07:38:16.973Z,996.33
2022-11-24T07:39:16.957Z,996.41
2022-11-24T07:40:16.949Z,996.36
2022-11-24T07:41:16.953Z,996.43
2022-11-24T07:42:16.927Z,996.48
2022-11-24T07:43:16.915Z,996.41
2022-11-24T07:44:16.904Z,996.43
2022-11-24T07:45:16.899Z,996.44
2022-11-24T07:46:16.887Z,996.52
2022-11-24T07:47:16.887Z,996.5
2022-11-24T07:48:16.866Z,996.5
2022-11-24T07:49:16.865Z,996.51
2022-11-24T07:50:16.838Z,996.6
2022-11-24T07:51:16.837Z,996.5
2022-11-24T07:52:16.840Z,996.55
2022-11-24T07:53:16.815Z,996.57
2022-11-24T07:54:16.815Z,996.56
2022-11-24T07:55:16.789Z,996.53
2022-11-24T07:56:16.785Z,996.56
2022-11-24T07:57:16.767Z,996.6
2022-11-24T07:58:16.759Z,996.59
2022-11-24T07:59:16.747Z,996.66
2022-11-24T08:00:16.827Z,996.59
2022-11-24T08:01:16.726Z,996.63
2022-11-24T08:02:16.715Z,996.59
2022-11-24T08:03:16.701Z,996.6
2022-11-24T08:04:16.698Z,996.58
2022-11-24T08:05:16.682Z,996.65
2022-11-24T08:06:16.686Z,996.64
2022-11-24T08:07:16.660Z,996.6
2022-11-24T08:08:16.646Z,996.64
2022-11-24T08:09:16.652Z,996.71
2022-11-24T08:10:16.639Z,996.66
2022-11-24T08:11:16.616Z,996.69
2022-11-24T08:12:16.603Z,996.67
2022-11-24T08:13:16.596Z,996.68
2022-11-24T08:14:16.595Z,996.71
2022-11-24T08:15:16.584Z,996.71
2022-11-24T08:16:16.564Z,996.68
2022-11-24T08:17:16.567Z,996.69
2022-11-24T08:18:16.539Z,996.68
2022-11-24T08:19:16.538Z,996.68
2022-11-24T08:20:16.522Z,996.73
2022-11-24T08:21:16.516Z,996.72
2022-11-24T08:22:16.497Z,996.72
2022-11-24T08:23:16.494Z,996.75
2022-11-24T08:24:16.480Z,996.74
2022-11-24T08:25:16.467Z,996.78
2022-11-24T08:26:16.458Z,996.73
2022-11-24T08:27:16.444Z,996.76
2022-11-24T08:28:16.449Z,996.74
2022-11-24T08:29:16.425Z,996.73
2022-11-24T08:30:16.443Z,996.74
2022-11-24T08:31:16.426Z,996.75
2022-11-24T08:32:16.426Z,996.75
2022-11-24T08:33:16.396Z,996.74
2022-11-24T08:34:16.406Z,996.8
2022-11-24T08:35:16.433Z,996.81
2022-11-24T08:36:16.395Z,996.84
2022-11-24T08:37:16.337Z,996.79
2022-11-24T08:38:16.329Z,996.84
2022-11-24T08:39:16.319Z,996.86
2022-11-24T08:40:16.315Z,996.82
2022-11-24T08:41:16.312Z,996.83
2022-11-24T08:42:16.292Z,996.88
2022-11-24T08:43:16.279Z,996.86
2022-11-24T08:44:16.271Z,996.85
2022-11-24T08:45:16.259Z,996.89
2022-11-24T08:46:16.253Z,996.87
2022-11-24T08:47:16.246Z,996.93
2022-11-24T08:48:16.235Z,996.87
2022-11-24T08:49:16.212Z,996.91
2022-11-24T08:50:16.199Z,996.88
2022-11-24T08:51:16.193Z,996.89
2022-11-24T08:52:16.233Z,996.88
2022-11-24T08:53:16.173Z,996.9
2022-11-24T08:54:16.248Z,996.89
2022-11-24T08:55:16.151Z,996.92
2022-11-24T08:56:16.145Z,996.95
2022-11-24T08:57:16.133Z,996.98
2022-11-24T08:58:16.136Z,996.96
2022-11-24T08:59:16.115Z,996.98
2022-11-24T09:00:16.115Z,997.01
2022-11-24T09:01:16.103Z,997.05
2022-11-24T09:02:16.079Z,997.06
2022-11-24T09:03:16.070Z,997.06
2022-11-24T09:04:16.068Z,997.07
2022-11-24T09:05:16.046Z,997.09
2022-11-24T09:06:16.035Z,997.15
2022-11-24T09:07:16.032Z,997.1
2022-11-24T09:08:16.016Z,997.05
2022-11-24T09:09:16.001Z,997.11
2022-11-24T09:10:15.997Z,997.1
2022-11-24T09:11:15.987Z,997.12
2022-11-24T09:12:15.973Z,997.12
2022-11-24T09:13:15.966Z,997.18
2022-11-24T09:14:16.962Z,997.22
2022-11-24T09:15:15.946Z,997.26
2022-11-24T09:16:15.939Z,997.22
2022-11-24T09:17:15.926Z,997.22
2022-11-24T09:18:15.924Z,997.31
2022-11-24T09:19:15.906Z,997.28
2022-11-24T09:20:15.910Z,997.25
2022-11-24T09:21:15.890Z,997.26
2022-11-24T09:22:15.863Z,997.25
2022-11-24T09:23:15.855Z,997.26
2022-11-24T09:24:15.860Z,997.3
2022-11-24T09:25:15.876Z,997.34
2022-11-24T09:26:15.894Z,997.27
2022-11-24T09:27:15.848Z,997.29
2022-11-24T09:28:15.803Z,997.28
2022-11-24T09:29:15.810Z,997.29
2022-11-24T09:30:15.786Z,997.36
2022-11-24T09:31:15.778Z,997.33
2022-11-24T09:32:15.787Z,997.31
2022-11-24T09:33:15.750Z,997.34
2022-11-24T09:34:15.758Z,997.34
2022-11-24T09:35:15.727Z,997.33
2022-11-24T09:36:15.717Z,997.35
2022-11-24T09:37:15.823Z,997.38
2022-11-24T09:38:15.697Z,997.4
2022-11-24T09:39:15.690Z,997.42
2022-11-24T09:40:15.674Z,997.38
2022-11-24T09:41:15.666Z,997.4
2022-11-24T09:42:15.653Z,997.43
2022-11-24T09:43:15.642Z,997.49
2022-11-24T09:44:15.635Z,997.42
2022-11-24T09:45:15.638Z,997.45
2022-11-24T09:46:15.619Z,997.45
2022-11-24T09:47:15.608Z,997.49
2022-11-24T09:48:15.583Z,997.49
2022-11-24T09:49:15.577Z,997.47
2022-11-24T09:50:15.570Z,997.48
2022-11-24T09:51:15.555Z,997.48
2022-11-24T09:52:15.549Z,997.51
2022-11-24T09:53:15.537Z,997.53
2022-11-24T09:54:15.521Z,997.51
2022-11-24T09:55:15.511Z,997.56
2022-11-24T09:56:15.499Z,997.51
2022-11-24T09:57:15.494Z,997.51
2022-11-24T09:58:15.479Z,997.45
2022-11-24T09:59:15.468Z,997.52
2022-11-24T10:00:15.457Z,997.52
2022-11-24T10:01:15.445Z,997.41
2022-11-24T10:02:15.436Z,997.49
2022-11-24T10:03:15.425Z,997.48
2022-11-24T10:04:15.435Z,997.55
2022-11-24T10:05:15.399Z,997.52
2022-11-24T10:06:15.398Z,997.52
2022-11-24T10:07:15.383Z,997.56
2022-11-24T10:08:15.368Z,997.58
2022-11-24T10:09:15.361Z,997.51
2022-11-24T10:10:15.359Z,997.62
2022-11-24T10:11:15.345Z,997.57
2022-11-24T10:12:15.323Z,997.61
2022-11-24T10:13:15.316Z,997.54
2022-11-24T10:14:15.305Z,997.57
2022-11-24T10:15:15.291Z,997.64
2022-11-24T10:16:15.283Z,997.59
2022-11-24T10:17:15.276Z,997.56
2022-11-24T10:18:15.258Z,997.65
2022-11-24T10:19:15.267Z,997.65
2022-11-24T10:20:15.238Z,997.69
2022-11-24T10:21:15.279Z,997.66
2022-11-24T10:22:15.216Z,997.64
2022-11-24T10:23:15.207Z,997.67
2022-11-24T10:24:15.198Z,997.69
2022-11-24T10:25:15.193Z,997.73
2022-11-24T10:26:15.172Z,997.76
2022-11-24T10:27:15.158Z,997.81
2022-11-24T10:28:15.152Z,997.81
2022-11-24T10:29:15.141Z,997.78
2022-11-24T10:30:15.126Z,997.83
2022-11-24T10:31:15.124Z,997.82
2022-11-24T10:32:15.107Z,997.78
2022-11-24T10:33:15.099Z,997.83
2022-11-24T10:34:15.085Z,997.89
2022-11-24T10:35:15.076Z,997.82
2022-11-24T10:36:15.060Z,997.9
2022-11-24T10:37:15.052Z,997.92
2022-11-24T10:38:15.045Z,997.89
2022-11-24T10:39:15.030Z,997.89
2022-11-24T10:40:15.020Z,997.79
2022-11-24T10:41:15.014Z,997.89
2022-11-24T10:42:14.993Z,997.81
2022-11-24T10:43:14.995Z,997.85
2022-11-24T10:44:14.978Z,997.86
2022-11-24T10:45:14.963Z,997.83
2022-11-24T10:46:14.956Z,997.92
2022-11-24T10:47:14.944Z,997.88
2022-11-24T10:48:14.934Z,997.82
2022-11-24T10:49:14.928Z,997.88
2022-11-24T10:50:14.910Z,997.92
2022-11-24T10:51:14.925Z,997.91
2022-11-24T10:52:14.933Z,997.95
2022-11-24T10:53:14.873Z,997.92
2022-11-24T10:54:14.870Z,997.91
2022-11-24T10:55:14.870Z,997.93
2022-11-24T10:56:14.849Z,997.86
2022-11-24T10:57:14.834Z,997.95
2022-11-24T10:58:14.824Z,997.97
2022-11-24T10:59:14.810Z,998.03
2022-11-24T11:00:14.803Z,997.93
2022-11-24T11:01:14.795Z,997.9
2022-11-24T11:02:14.778Z,997.93
2022-11-24T11:03:14.774Z,997.98
2022-11-24T11:04:14.758Z,998.05
2022-11-24T11:05:14.750Z,998.02
2022-11-24T11:06:14.736Z,998.06
2022-11-24T11:07:14.722Z,998.03
2022-11-24T11:08:14.719Z,998.05
2022-11-24T11:09:14.708Z,998.03
2022-11-24T11:10:14.693Z,998.1
2022-11-24T11:11:14.679Z,998.11
2022-11-24T11:13:14.663Z,998.1
2022-11-24T11:14:14.648Z,998.16
2022-11-24T11:15:14.639Z,998.16
2022-11-24T11:16:14.633Z,998.15
2022-11-24T11:17:14.619Z,998.14
2022-11-24T11:18:14.605Z,998.07
2022-11-24T11:19:14.600Z,998.13
2022-11-24T11:20:14.585Z,998.12
2022-11-24T11:21:14.575Z,998.15
2022-11-24T11:22:14.582Z,998.09
2022-11-24T11:23:15.397Z,998.13
2022-11-24T11:24:14.594Z,998.1
2022-11-24T11:25:14.534Z,998.09
2022-11-24T11:26:14.518Z,998.15
2022-11-24T11:27:14.509Z,998.21
2022-11-24T11:28:14.500Z,998.15
2022-11-24T11:31:14.473Z,998.2
2022-11-24T11:34:14.445Z,998.23
2022-11-24T11:35:14.428Z,998.26
2022-11-24T11:36:14.459Z,998.31
2022-11-24T11:37:14.436Z,998.3
2022-11-24T11:38:14.414Z,998.28
2022-11-24T11:39:14.383Z,998.3
2022-11-24T11:40:14.382Z,998.32
2022-11-24T11:41:14.360Z,998.33
2022-11-24T11:42:14.349Z,998.33
2022-11-24T11:43:14.348Z,998.27
2022-11-24T11:44:14.332Z,998.35
2022-11-24T11:45:14.330Z,998.34
2022-11-24T11:46:14.337Z,998.33
2022-11-24T11:47:14.302Z,998.42
2022-11-24T11:48:14.295Z,998.37
2022-11-24T11:49:14.274Z,998.35
2022-11-24T11:50:14.261Z,998.37
2022-11-24T11:51:14.256Z,998.47
2022-11-24T11:52:14.253Z,998.47
2022-11-24T11:53:14.232Z,998.45
2022-11-24T11:54:14.218Z,998.46
2022-11-24T11:55:14.232Z,998.41
2022-11-24T11:56:15.238Z,998.44
2022-11-24T11:57:14.191Z,998.36
2022-11-24T11:58:14.205Z,998.38
2022-11-24T11:59:14.181Z,998.39
2022-11-24T12:00:14.157Z,998.38
2022-11-24T12:01:14.181Z,998.49
2022-11-24T12:02:14.158Z,998.51
2022-11-24T12:03:14.148Z,998.53
2022-11-24T12:04:14.139Z,998.53
2022-11-24T12:05:14.113Z,998.58
2022-11-24T12:06:14.120Z,998.57
2022-11-24T12:07:14.082Z,998.5
2022-11-24T12:08:14.070Z,998.57
2022-11-24T12:09:14.060Z,998.59
2022-11-24T12:10:14.051Z,998.63
2022-11-24T12:11:14.187Z,998.56
2022-11-24T12:12:14.046Z,998.62
2022-11-24T12:13:14.036Z,998.66
2022-11-24T12:14:14.085Z,998.63
2022-11-24T12:15:13.995Z,998.62
2022-11-24T12:16:13.985Z,998.66
2022-11-24T12:17:14.016Z,998.69
2022-11-24T12:18:13.987Z,998.68
2022-11-24T12:19:13.956Z,998.69
2022-11-24T12:20:13.991Z,998.71
2022-11-24T12:21:13.962Z,998.69
2022-11-24T12:22:13.923Z,998.72
2022-11-24T12:23:13.909Z,998.73
2022-11-24T12:24:13.918Z,998.76
2022-11-24T12:25:13.888Z,998.77
2022-11-24T12:26:13.887Z,998.8
2022-11-24T12:27:13.873Z,998.85
2022-11-24T12:28:13.861Z,998.83
2022-11-24T12:29:13.861Z,998.82
2022-11-24T12:30:13.834Z,998.78
2022-11-24T12:31:13.829Z,998.84
2022-11-24T12:32:13.811Z,998.81
2022-11-24T12:33:13.824Z,998.85
2022-11-24T12:34:13.799Z,998.79
2022-11-24T12:35:13.783Z,998.81